メインページ
METAR-TAF:

METAR-TAF

空港 :

メンドーサ, アルゼンチン

緯度: 32-50S, 経度: 068-47W, 海抜: 705m

現時点の気象観測

当レポートは25分前の21:00(UTC)に作成
北/北東の風 9kt
気温 22°C
湿度 31%
気圧 1015 hPa
視程10km以上
1,500メートル以下は雲なし、積乱雲なし

METAR: SAME 162100Z 02009KT CAVOK 22/04 Q1015

時間: 18:25 (21:25 UTC)

予報

当レポートは4時間25分前の17:00(UTC)に作成
予報は16日の 18時(UTC)から 17日の 18時(UTC)まで有効
北東の風 10kt
視程10km以上
1,500メートル以下は雲なし、積乱雲なし

TAF: SAME 161700Z 1618/1718 05010KT CAVOK TX23/1620Z TN04/1710Z

4,000以上の空港の気象観測と天気予報(METAR報とTAF報)

利用可能な観測所は地図上に黄色い丸と赤い丸で示す。

丸の上にカーソルを重ねると観測所名を参照できる。

次にクリックすると気象観測と天気予報を参照できる。

マップの切り替え:黒色「×」印の緑ボタンをクリックして拡大、「-」印の緑ボタンをクリックして縮小、緑色の三角印をクリックして隣りの地図に切り替え


METAR-TAF: